sensor_id;sensor_type;location;lat;lon;timestamp;P1;durP1;ratioP1;P2;durP2;ratioP2
23171;SDS011;11754;42.664;23.594;2022-10-30T00:01:48;8.93;;;4.95;;
23171;SDS011;11754;42.664;23.594;2022-10-30T00:04:13;8.25;;;4.97;;
23171;SDS011;11754;42.664;23.594;2022-10-30T00:06:38;7.72;;;5.00;;
23171;SDS011;11754;42.664;23.594;2022-10-30T00:09:04;7.88;;;4.80;;
23171;SDS011;11754;42.664;23.594;2022-10-30T00:11:29;8.43;;;5.03;;
23171;SDS011;11754;42.664;23.594;2022-10-30T00:13:54;8.85;;;5.25;;
23171;SDS011;11754;42.664;23.594;2022-10-30T00:16:20;8.15;;;4.80;;
23171;SDS011;11754;42.664;23.594;2022-10-30T00:18:45;11.90;;;4.82;;
23171;SDS011;11754;42.664;23.594;2022-10-30T00:21:12;8.00;;;4.70;;
23171;SDS011;11754;42.664;23.594;2022-10-30T00:23:49;9.63;;;5.40;;
23171;SDS011;11754;42.664;23.594;2022-10-30T00:26:16;8.60;;;5.53;;
23171;SDS011;11754;42.664;23.594;2022-10-30T00:28:43;6.85;;;5.03;;
23171;SDS011;11754;42.664;23.594;2022-10-30T00:31:09;9.18;;;4.82;;
23171;SDS011;11754;42.664;23.594;2022-10-30T00:33:35;7.57;;;5.00;;
23171;SDS011;11754;42.664;23.594;2022-10-30T00:36:00;9.02;;;5.47;;
23171;SDS011;11754;42.664;23.594;2022-10-30T00:38:25;10.35;;;5.45;;
23171;SDS011;11754;42.664;23.594;2022-10-30T00:40:51;8.65;;;4.90;;
23171;SDS011;11754;42.664;23.594;2022-10-30T00:43:26;9.07;;;5.38;;
23171;SDS011;11754;42.664;23.594;2022-10-30T00:45:52;8.57;;;5.00;;
23171;SDS011;11754;42.664;23.594;2022-10-30T00:48:17;7.00;;;4.85;;
23171;SDS011;11754;42.664;23.594;2022-10-30T00:50:48;7.43;;;5.22;;
23171;SDS011;11754;42.664;23.594;2022-10-30T00:53:14;8.82;;;4.32;;
23171;SDS011;11754;42.664;23.594;2022-10-30T00:55:47;9.50;;;5.15;;
23171;SDS011;11754;42.664;23.594;2022-10-30T00:58:16;11.40;;;5.03;;
23171;SDS011;11754;42.664;23.594;2022-10-30T01:00:46;7.65;;;4.53;;
23171;SDS011;11754;42.664;23.594;2022-10-30T01:03:16;9.38;;;4.45;;
23171;SDS011;11754;42.664;23.594;2022-10-30T01:05:43;12.07;;;5.60;;
23171;SDS011;11754;42.664;23.594;2022-10-30T01:08:12;12.18;;;5.97;;
23171;SDS011;11754;42.664;23.594;2022-10-30T01:10:38;10.95;;;6.15;;
23171;SDS011;11754;42.664;23.594;2022-10-30T01:13:04;10.02;;;5.50;;
23171;SDS011;11754;42.664;23.594;2022-10-30T01:15:32;10.50;;;6.07;;
23171;SDS011;11754;42.664;23.594;2022-10-30T01:26:18;8.32;;;5.70;;
23171;SDS011;11754;42.664;23.594;2022-10-30T01:28:49;12.82;;;6.10;;
23171;SDS011;11754;42.664;23.594;2022-10-30T01:36:48;9.30;;;6.20;;
23171;SDS011;11754;42.664;23.594;2022-10-30T01:39:25;10.80;;;6.30;;
23171;SDS011;11754;42.664;23.594;2022-10-30T01:41:53;9.98;;;6.15;;
23171;SDS011;11754;42.664;23.594;2022-10-30T01:44:24;9.98;;;5.57;;
23171;SDS011;11754;42.664;23.594;2022-10-30T01:52:20;8.13;;;5.30;;
23171;SDS011;11754;42.664;23.594;2022-10-30T01:55:06;10.80;;;5.20;;
23171;SDS011;11754;42.664;23.594;2022-10-30T02:00:21;8.52;;;5.28;;
23171;SDS011;11754;42.664;23.594;2022-10-30T02:02:48;9.38;;;4.63;;
23171;SDS011;11754;42.664;23.594;2022-10-30T02:05:27;12.05;;;4.75;;
23171;SDS011;11754;42.664;23.594;2022-10-30T02:07:56;11.45;;;6.28;;
23171;SDS011;11754;42.664;23.594;2022-10-30T02:10:22;11.98;;;6.18;;
23171;SDS011;11754;42.664;23.594;2022-10-30T02:12:47;12.02;;;5.22;;
23171;SDS011;11754;42.664;23.594;2022-10-30T02:15:13;12.15;;;5.05;;
23171;SDS011;11754;42.664;23.594;2022-10-30T02:17:39;8.40;;;5.40;;
23171;SDS011;11754;42.664;23.594;2022-10-30T02:20:05;7.10;;;4.95;;
23171;SDS011;11754;42.664;23.594;2022-10-30T02:22:31;9.45;;;5.05;;
23171;SDS011;11754;42.664;23.594;2022-10-30T02:24:57;8.05;;;5.10;;
23171;SDS011;11754;42.664;23.594;2022-10-30T02:27:22;9.60;;;5.47;;
23171;SDS011;11754;42.664;23.594;2022-10-30T02:29:47;7.50;;;5.28;;
23171;SDS011;11754;42.664;23.594;2022-10-30T02:32:13;10.65;;;5.38;;
23171;SDS011;11754;42.664;23.594;2022-10-30T02:34:38;7.45;;;4.93;;
23171;SDS011;11754;42.664;23.594;2022-10-30T02:37:03;7.30;;;5.07;;
23171;SDS011;11754;42.664;23.594;2022-10-30T02:39:29;8.70;;;5.32;;
23171;SDS011;11754;42.664;23.594;2022-10-30T02:41:54;8.57;;;4.97;;
23171;SDS011;11754;42.664;23.594;2022-10-30T02:44:20;7.50;;;4.93;;
23171;SDS011;11754;42.664;23.594;2022-10-30T02:46:45;8.60;;;4.93;;
23171;SDS011;11754;42.664;23.594;2022-10-30T02:49:10;6.50;;;4.70;;
23171;SDS011;11754;42.664;23.594;2022-10-30T02:51:36;7.72;;;4.97;;
23171;SDS011;11754;42.664;23.594;2022-10-30T02:54:01;8.23;;;5.25;;
23171;SDS011;11754;42.664;23.594;2022-10-30T02:56:26;9.18;;;4.80;;
23171;SDS011;11754;42.664;23.594;2022-10-30T02:58:53;7.57;;;5.15;;
23171;SDS011;11754;42.664;23.594;2022-10-30T03:01:19;9.13;;;5.53;;
23171;SDS011;11754;42.664;23.594;2022-10-30T03:03:45;9.68;;;5.13;;
23171;SDS011;11754;42.664;23.594;2022-10-30T03:06:11;7.85;;;5.75;;
23171;SDS011;11754;42.664;23.594;2022-10-30T03:08:39;22.83;;;6.78;;
23171;SDS011;11754;42.664;23.594;2022-10-30T03:11:06;14.93;;;7.80;;
23171;SDS011;11754;42.664;23.594;2022-10-30T03:13:33;16.30;;;8.38;;
23171;SDS011;11754;42.664;23.594;2022-10-30T03:16:00;11.15;;;7.78;;
23171;SDS011;11754;42.664;23.594;2022-10-30T03:18:27;16.58;;;10.05;;
23171;SDS011;11754;42.664;23.594;2022-10-30T03:20:56;14.65;;;9.95;;
23171;SDS011;11754;42.664;23.594;2022-10-30T03:23:26;17.75;;;8.82;;
23171;SDS011;11754;42.664;23.594;2022-10-30T03:25:53;14.10;;;8.38;;
23171;SDS011;11754;42.664;23.594;2022-10-30T03:28:20;13.70;;;6.93;;
23171;SDS011;11754;42.664;23.594;2022-10-30T03:30:46;11.15;;;6.22;;
23171;SDS011;11754;42.664;23.594;2022-10-30T03:33:12;10.10;;;6.15;;
23171;SDS011;11754;42.664;23.594;2022-10-30T03:35:37;9.50;;;5.43;;
23171;SDS011;11754;42.664;23.594;2022-10-30T03:38:03;9.02;;;5.68;;
23171;SDS011;11754;42.664;23.594;2022-10-30T03:40:29;8.70;;;5.53;;
23171;SDS011;11754;42.664;23.594;2022-10-30T03:42:54;11.20;;;5.53;;
23171;SDS011;11754;42.664;23.594;2022-10-30T03:45:19;9.43;;;5.18;;
23171;SDS011;11754;42.664;23.594;2022-10-30T03:47:45;8.30;;;5.30;;
23171;SDS011;11754;42.664;23.594;2022-10-30T03:50:10;11.93;;;5.50;;
23171;SDS011;11754;42.664;23.594;2022-10-30T03:52:35;9.23;;;5.38;;
23171;SDS011;11754;42.664;23.594;2022-10-30T03:55:01;10.45;;;5.20;;
23171;SDS011;11754;42.664;23.594;2022-10-30T03:57:26;10.75;;;6.07;;
23171;SDS011;11754;42.664;23.594;2022-10-30T03:59:51;9.48;;;5.70;;
23171;SDS011;11754;42.664;23.594;2022-10-30T04:02:17;9.60;;;5.55;;
23171;SDS011;11754;42.664;23.594;2022-10-30T04:04:42;10.63;;;6.10;;
23171;SDS011;11754;42.664;23.594;2022-10-30T04:07:08;9.88;;;6.15;;
23171;SDS011;11754;42.664;23.594;2022-10-30T04:09:36;11.18;;;6.85;;
23171;SDS011;11754;42.664;23.594;2022-10-30T04:12:01;12.23;;;7.10;;
23171;SDS011;11754;42.664;23.594;2022-10-30T04:14:27;12.75;;;7.43;;
23171;SDS011;11754;42.664;23.594;2022-10-30T04:16:52;14.82;;;7.95;;
23171;SDS011;11754;42.664;23.594;2022-10-30T04:19:17;11.30;;;7.32;;
23171;SDS011;11754;42.664;23.594;2022-10-30T04:21:43;13.23;;;7.20;;
23171;SDS011;11754;42.664;23.594;2022-10-30T04:24:08;10.43;;;6.75;;
23171;SDS011;11754;42.664;23.594;2022-10-30T04:26:34;10.70;;;6.28;;
23171;SDS011;11754;42.664;23.594;2022-10-30T04:28:59;9.57;;;6.35;;
23171;SDS011;11754;42.664;23.594;2022-10-30T04:31:25;8.82;;;6.40;;
23171;SDS011;11754;42.664;23.594;2022-10-30T04:33:50;12.35;;;6.32;;
23171;SDS011;11754;42.664;23.594;2022-10-30T04:36:16;12.48;;;5.82;;
23171;SDS011;11754;42.664;23.594;2022-10-30T04:38:42;8.63;;;5.72;;
23171;SDS011;11754;42.664;23.594;2022-10-30T04:41:07;10.95;;;5.95;;
23171;SDS011;11754;42.664;23.594;2022-10-30T04:43:33;11.95;;;5.65;;
23171;SDS011;11754;42.664;23.594;2022-10-30T04:45:58;10.68;;;6.03;;
23171;SDS011;11754;42.664;23.594;2022-10-30T04:48:23;12.00;;;5.95;;
23171;SDS011;11754;42.664;23.594;2022-10-30T04:50:49;15.68;;;5.65;;
23171;SDS011;11754;42.664;23.594;2022-10-30T04:53:15;18.27;;;6.30;;
23171;SDS011;11754;42.664;23.594;2022-10-30T04:55:43;9.65;;;5.97;;
23171;SDS011;11754;42.664;23.594;2022-10-30T04:58:08;9.52;;;6.28;;
23171;SDS011;11754;42.664;23.594;2022-10-30T05:00:35;9.80;;;6.22;;
23171;SDS011;11754;42.664;23.594;2022-10-30T05:03:01;13.38;;;7.40;;
23171;SDS011;11754;42.664;23.594;2022-10-30T05:05:27;23.50;;;8.23;;
23171;SDS011;11754;42.664;23.594;2022-10-30T05:07:56;23.05;;;7.63;;
23171;SDS011;11754;42.664;23.594;2022-10-30T05:10:21;19.23;;;8.90;;
23171;SDS011;11754;42.664;23.594;2022-10-30T05:12:47;21.40;;;9.32;;
23171;SDS011;11754;42.664;23.594;2022-10-30T05:15:12;26.85;;;10.30;;
23171;SDS011;11754;42.664;23.594;2022-10-30T05:17:39;24.60;;;10.40;;
23171;SDS011;11754;42.664;23.594;2022-10-30T05:20:05;30.30;;;12.60;;
23171;SDS011;11754;42.664;23.594;2022-10-30T05:22:31;18.52;;;9.27;;
23171;SDS011;11754;42.664;23.594;2022-10-30T05:24:56;16.23;;;8.50;;
23171;SDS011;11754;42.664;23.594;2022-10-30T05:27:22;13.20;;;8.32;;
23171;SDS011;11754;42.664;23.594;2022-10-30T05:29:47;13.95;;;7.43;;
23171;SDS011;11754;42.664;23.594;2022-10-30T05:32:13;13.35;;;7.22;;
23171;SDS011;11754;42.664;23.594;2022-10-30T05:34:38;11.15;;;7.03;;
23171;SDS011;11754;42.664;23.594;2022-10-30T05:37:03;12.18;;;7.82;;
23171;SDS011;11754;42.664;23.594;2022-10-30T05:39:29;17.13;;;8.10;;
23171;SDS011;11754;42.664;23.594;2022-10-30T05:41:54;29.02;;;12.80;;
23171;SDS011;11754;42.664;23.594;2022-10-30T05:44:19;23.77;;;12.25;;
23171;SDS011;11754;42.664;23.594;2022-10-30T05:46:45;27.40;;;13.40;;
23171;SDS011;11754;42.664;23.594;2022-10-30T05:49:10;31.02;;;12.70;;
23171;SDS011;11754;42.664;23.594;2022-10-30T05:51:36;24.98;;;11.15;;
23171;SDS011;11754;42.664;23.594;2022-10-30T05:54:01;15.85;;;9.70;;
23171;SDS011;11754;42.664;23.594;2022-10-30T05:56:27;19.90;;;11.10;;
23171;SDS011;11754;42.664;23.594;2022-10-30T05:58:52;19.40;;;10.82;;
23171;SDS011;11754;42.664;23.594;2022-10-30T06:01:17;26.15;;;11.48;;
23171;SDS011;11754;42.664;23.594;2022-10-30T06:03:43;19.63;;;11.45;;
23171;SDS011;11754;42.664;23.594;2022-10-30T06:06:08;20.70;;;11.48;;
23171;SDS011;11754;42.664;23.594;2022-10-30T06:08:34;15.88;;;11.15;;
23171;SDS011;11754;42.664;23.594;2022-10-30T06:10:59;24.77;;;12.63;;
23171;SDS011;11754;42.664;23.594;2022-10-30T06:13:25;24.23;;;13.75;;
23171;SDS011;11754;42.664;23.594;2022-10-30T06:15:52;27.23;;;16.20;;
23171;SDS011;11754;42.664;23.594;2022-10-30T06:18:19;18.88;;;11.65;;
23171;SDS011;11754;42.664;23.594;2022-10-30T06:20:44;18.13;;;11.02;;
23171;SDS011;11754;42.664;23.594;2022-10-30T06:23:09;15.70;;;10.85;;
23171;SDS011;11754;42.664;23.594;2022-10-30T06:25:35;19.40;;;12.80;;
23171;SDS011;11754;42.664;23.594;2022-10-30T06:28:01;19.45;;;12.50;;
23171;SDS011;11754;42.664;23.594;2022-10-30T06:30:27;18.95;;;11.93;;
23171;SDS011;11754;42.664;23.594;2022-10-30T06:32:56;21.27;;;9.68;;
23171;SDS011;11754;42.664;23.594;2022-10-30T06:35:22;17.35;;;10.15;;
23171;SDS011;11754;42.664;23.594;2022-10-30T06:37:48;16.98;;;12.32;;
23171;SDS011;11754;42.664;23.594;2022-10-30T06:40:14;20.02;;;12.23;;
23171;SDS011;11754;42.664;23.594;2022-10-30T06:55:58;17.83;;;10.40;;
23171;SDS011;11754;42.664;23.594;2022-10-30T06:58:25;18.17;;;10.82;;
23171;SDS011;11754;42.664;23.594;2022-10-30T07:00:51;19.58;;;12.20;;
23171;SDS011;11754;42.664;23.594;2022-10-30T07:03:17;23.77;;;10.98;;
23171;SDS011;11754;42.664;23.594;2022-10-30T07:05:43;19.63;;;13.18;;
23171;SDS011;11754;42.664;23.594;2022-10-30T07:08:08;24.17;;;15.57;;
23171;SDS011;11754;42.664;23.594;2022-10-30T07:10:34;23.55;;;16.48;;
23171;SDS011;11754;42.664;23.594;2022-10-30T07:12:59;27.15;;;16.48;;
23171;SDS011;11754;42.664;23.594;2022-10-30T07:15:25;39.42;;;23.35;;
23171;SDS011;11754;42.664;23.594;2022-10-30T07:17:57;25.63;;;17.50;;
23171;SDS011;11754;42.664;23.594;2022-10-30T07:20:25;30.02;;;17.45;;
23171;SDS011;11754;42.664;23.594;2022-10-30T07:22:51;21.85;;;15.00;;
23171;SDS011;11754;42.664;23.594;2022-10-30T07:25:17;19.10;;;13.63;;
23171;SDS011;11754;42.664;23.594;2022-10-30T07:27:43;29.60;;;16.95;;
23171;SDS011;11754;42.664;23.594;2022-10-30T07:30:13;39.47;;;22.70;;
23171;SDS011;11754;42.664;23.594;2022-10-30T07:32:41;33.10;;;22.25;;
23171;SDS011;11754;42.664;23.594;2022-10-30T07:35:07;20.33;;;14.00;;
23171;SDS011;11754;42.664;23.594;2022-10-30T07:37:33;19.48;;;12.00;;
23171;SDS011;11754;42.664;23.594;2022-10-30T07:39:59;20.42;;;11.25;;
23171;SDS011;11754;42.664;23.594;2022-10-30T07:42:25;17.08;;;10.27;;
23171;SDS011;11754;42.664;23.594;2022-10-30T07:44:50;11.35;;;9.38;;
23171;SDS011;11754;42.664;23.594;2022-10-30T07:47:16;79.47;;;13.77;;
23171;SDS011;11754;42.664;23.594;2022-10-30T07:49:41;25.08;;;9.80;;
23171;SDS011;11754;42.664;23.594;2022-10-30T07:52:06;17.13;;;9.70;;
23171;SDS011;11754;42.664;23.594;2022-10-30T07:54:32;14.23;;;9.77;;
23171;SDS011;11754;42.664;23.594;2022-10-30T07:56:57;15.55;;;9.95;;
23171;SDS011;11754;42.664;23.594;2022-10-30T07:59:23;15.27;;;11.27;;
23171;SDS011;11754;42.664;23.594;2022-10-30T08:01:49;16.58;;;12.35;;
23171;SDS011;11754;42.664;23.594;2022-10-30T08:04:15;23.02;;;19.73;;
23171;SDS011;11754;42.664;23.594;2022-10-30T08:06:40;19.33;;;13.68;;
23171;SDS011;11754;42.664;23.594;2022-10-30T08:09:06;25.92;;;23.05;;
23171;SDS011;11754;42.664;23.594;2022-10-30T08:11:31;39.45;;;30.48;;
23171;SDS011;11754;42.664;23.594;2022-10-30T08:13:57;31.20;;;26.58;;
23171;SDS011;11754;42.664;23.594;2022-10-30T08:16:22;57.83;;;20.02;;
23171;SDS011;11754;42.664;23.594;2022-10-30T08:18:48;15.50;;;9.82;;
23171;SDS011;11754;42.664;23.594;2022-10-30T08:21:13;12.68;;;8.98;;
23171;SDS011;11754;42.664;23.594;2022-10-30T08:23:39;13.38;;;10.52;;
23171;SDS011;11754;42.664;23.594;2022-10-30T08:26:04;13.13;;;9.40;;
23171;SDS011;11754;42.664;23.594;2022-10-30T08:28:30;11.43;;;8.20;;
23171;SDS011;11754;42.664;23.594;2022-10-30T08:30:56;9.13;;;8.13;;
23171;SDS011;11754;42.664;23.594;2022-10-30T08:33:22;13.18;;;7.40;;
23171;SDS011;11754;42.664;23.594;2022-10-30T08:35:51;9.70;;;6.85;;
23171;SDS011;11754;42.664;23.594;2022-10-30T08:40:45;9.95;;;5.78;;
23171;SDS011;11754;42.664;23.594;2022-10-30T08:43:11;10.52;;;6.03;;
23171;SDS011;11754;42.664;23.594;2022-10-30T08:45:37;8.77;;;5.90;;
23171;SDS011;11754;42.664;23.594;2022-10-30T08:48:03;9.50;;;5.90;;
23171;SDS011;11754;42.664;23.594;2022-10-30T08:50:30;9.93;;;5.65;;
23171;SDS011;11754;42.664;23.594;2022-10-30T08:53:04;10.70;;;5.43;;
23171;SDS011;11754;42.664;23.594;2022-10-30T08:55:31;7.78;;;5.30;;
23171;SDS011;11754;42.664;23.594;2022-10-30T08:57:57;8.48;;;5.05;;
23171;SDS011;11754;42.664;23.594;2022-10-30T09:00:23;8.02;;;4.57;;
23171;SDS011;11754;42.664;23.594;2022-10-30T09:02:49;6.53;;;4.82;;
23171;SDS011;11754;42.664;23.594;2022-10-30T09:05:14;6.70;;;4.93;;
23171;SDS011;11754;42.664;23.594;2022-10-30T09:07:40;11.70;;;4.75;;
23171;SDS011;11754;42.664;23.594;2022-10-30T09:10:05;6.82;;;4.38;;
23171;SDS011;11754;42.664;23.594;2022-10-30T09:12:31;6.43;;;4.43;;
23171;SDS011;11754;42.664;23.594;2022-10-30T09:14:56;9.05;;;4.50;;
23171;SDS011;11754;42.664;23.594;2022-10-30T09:17:22;7.80;;;4.60;;
23171;SDS011;11754;42.664;23.594;2022-10-30T09:19:47;7.97;;;4.18;;
23171;SDS011;11754;42.664;23.594;2022-10-30T09:22:13;9.32;;;4.20;;
23171;SDS011;11754;42.664;23.594;2022-10-30T09:24:38;9.18;;;4.90;;
23171;SDS011;11754;42.664;23.594;2022-10-30T09:27:04;7.60;;;4.65;;
23171;SDS011;11754;42.664;23.594;2022-10-30T09:29:30;6.35;;;4.05;;
23171;SDS011;11754;42.664;23.594;2022-10-30T09:31:56;7.57;;;3.90;;
23171;SDS011;11754;42.664;23.594;2022-10-30T09:34:22;5.88;;;3.58;;
23171;SDS011;11754;42.664;23.594;2022-10-30T09:36:47;6.45;;;3.45;;
23171;SDS011;11754;42.664;23.594;2022-10-30T09:39:13;10.98;;;3.13;;
23171;SDS011;11754;42.664;23.594;2022-10-30T09:53:12;6.13;;;2.60;;
23171;SDS011;11754;42.664;23.594;2022-10-30T09:55:50;5.30;;;2.60;;
23171;SDS011;11754;42.664;23.594;2022-10-30T10:00:49;5.97;;;2.40;;
23171;SDS011;11754;42.664;23.594;2022-10-30T10:06:09;8.18;;;2.33;;
23171;SDS011;11754;42.664;23.594;2022-10-30T10:09:40;5.75;;;2.60;;
23171;SDS011;11754;42.664;23.594;2022-10-30T10:11:41;4.15;;;1.98;;
23171;SDS011;11754;42.664;23.594;2022-10-30T10:17:16;3.03;;;1.90;;
23171;SDS011;11754;42.664;23.594;2022-10-30T10:19:51;3.65;;;2.08;;
23171;SDS011;11754;42.664;23.594;2022-10-30T10:22:43;5.00;;;2.30;;
23171;SDS011;11754;42.664;23.594;2022-10-30T10:25:14;4.35;;;2.17;;
23171;SDS011;11754;42.664;23.594;2022-10-30T10:30:30;7.38;;;1.90;;
23171;SDS011;11754;42.664;23.594;2022-10-30T10:33:32;6.57;;;1.80;;
23171;SDS011;11754;42.664;23.594;2022-10-30T10:36:19;6.72;;;1.70;;
23171;SDS011;11754;42.664;23.594;2022-10-30T10:39:00;5.63;;;3.28;;
23171;SDS011;11754;42.664;23.594;2022-10-30T10:41:36;6.97;;;1.98;;
23171;SDS011;11754;42.664;23.594;2022-10-30T10:47:04;7.13;;;1.75;;
23171;SDS011;11754;42.664;23.594;2022-10-30T10:52:55;5.18;;;2.00;;
23171;SDS011;11754;42.664;23.594;2022-10-30T10:55:32;9.23;;;2.40;;
23171;SDS011;11754;42.664;23.594;2022-10-30T10:58:14;5.97;;;2.20;;
23171;SDS011;11754;42.664;23.594;2022-10-30T11:00:47;7.03;;;2.45;;
23171;SDS011;11754;42.664;23.594;2022-10-30T11:03:14;5.00;;;2.20;;
23171;SDS011;11754;42.664;23.594;2022-10-30T11:06:02;5.28;;;2.22;;
23171;SDS011;11754;42.664;23.594;2022-10-30T11:08:45;8.85;;;2.30;;
23171;SDS011;11754;42.664;23.594;2022-10-30T11:11:11;5.63;;;2.50;;
23171;SDS011;11754;42.664;23.594;2022-10-30T11:13:39;7.53;;;2.38;;
23171;SDS011;11754;42.664;23.594;2022-10-30T11:18:47;6.05;;;2.50;;
23171;SDS011;11754;42.664;23.594;2022-10-30T11:21:23;5.03;;;2.67;;
23171;SDS011;11754;42.664;23.594;2022-10-30T11:23:50;6.93;;;2.50;;
23171;SDS011;11754;42.664;23.594;2022-10-30T11:31:31;9.27;;;2.60;;
23171;SDS011;11754;42.664;23.594;2022-10-30T11:36:42;9.18;;;2.22;;
23171;SDS011;11754;42.664;23.594;2022-10-30T11:39:10;5.65;;;2.38;;
23171;SDS011;11754;42.664;23.594;2022-10-30T11:41:41;4.72;;;2.00;;
23171;SDS011;11754;42.664;23.594;2022-10-30T11:44:07;4.43;;;2.20;;
23171;SDS011;11754;42.664;23.594;2022-10-30T11:46:34;4.20;;;2.20;;
23171;SDS011;11754;42.664;23.594;2022-10-30T11:49:01;8.73;;;2.17;;
23171;SDS011;11754;42.664;23.594;2022-10-30T11:51:31;5.53;;;2.33;;
23171;SDS011;11754;42.664;23.594;2022-10-30T11:54:00;5.25;;;2.10;;
23171;SDS011;11754;42.664;23.594;2022-10-30T11:56:26;7.30;;;2.20;;
23171;SDS011;11754;42.664;23.594;2022-10-30T11:58:53;7.80;;;1.95;;
23171;SDS011;11754;42.664;23.594;2022-10-30T12:01:25;4.40;;;1.92;;
23171;SDS011;11754;42.664;23.594;2022-10-30T12:03:53;7.65;;;2.10;;
23171;SDS011;11754;42.664;23.594;2022-10-30T12:06:25;9.68;;;2.28;;
23171;SDS011;11754;42.664;23.594;2022-10-30T12:11:28;6.78;;;1.88;;
23171;SDS011;11754;42.664;23.594;2022-10-30T12:13:56;4.22;;;1.80;;
23171;SDS011;11754;42.664;23.594;2022-10-30T12:16:23;5.13;;;2.10;;
23171;SDS011;11754;42.664;23.594;2022-10-30T12:19:00;8.02;;;2.00;;
23171;SDS011;11754;42.664;23.594;2022-10-30T12:21:29;5.95;;;1.92;;
23171;SDS011;11754;42.664;23.594;2022-10-30T12:24:00;5.18;;;1.80;;
23171;SDS011;11754;42.664;23.594;2022-10-30T12:28:58;7.18;;;1.80;;
23171;SDS011;11754;42.664;23.594;2022-10-30T12:31:37;6.80;;;1.73;;
23171;SDS011;11754;42.664;23.594;2022-10-30T12:37:24;4.20;;;1.70;;
23171;SDS011;11754;42.664;23.594;2022-10-30T12:39:57;5.22;;;1.70;;
23171;SDS011;11754;42.664;23.594;2022-10-30T12:42:28;4.93;;;1.83;;
23171;SDS011;11754;42.664;23.594;2022-10-30T12:47:50;8.32;;;1.83;;
23171;SDS011;11754;42.664;23.594;2022-10-30T12:50:26;6.40;;;1.98;;
23171;SDS011;11754;42.664;23.594;2022-10-30T12:53:00;7.57;;;1.70;;
23171;SDS011;11754;42.664;23.594;2022-10-30T12:55:33;5.13;;;1.67;;
23171;SDS011;11754;42.664;23.594;2022-10-30T13:00:59;5.00;;;1.98;;
23171;SDS011;11754;42.664;23.594;2022-10-30T13:03:30;4.70;;;1.60;;
23171;SDS011;11754;42.664;23.594;2022-10-30T13:06:04;4.05;;;1.45;;
23171;SDS011;11754;42.664;23.594;2022-10-30T13:08:38;7.85;;;1.40;;
23171;SDS011;11754;42.664;23.594;2022-10-30T13:13:40;7.70;;;1.43;;
23171;SDS011;11754;42.664;23.594;2022-10-30T13:16:15;7.68;;;1.70;;
23171;SDS011;11754;42.664;23.594;2022-10-30T13:18:45;4.88;;;1.60;;
23171;SDS011;11754;42.664;23.594;2022-10-30T13:31:25;3.03;;;1.00;;
23171;SDS011;11754;42.664;23.594;2022-10-30T13:36:51;6.13;;;1.10;;
23171;SDS011;11754;42.664;23.594;2022-10-30T13:39:24;3.45;;;1.05;;
23171;SDS011;11754;42.664;23.594;2022-10-30T13:47:26;7.43;;;1.42;;
23171;SDS011;11754;42.664;23.594;2022-10-30T13:50:29;3.25;;;1.50;;
23171;SDS011;11754;42.664;23.594;2022-10-30T13:52:58;5.10;;;1.20;;
23171;SDS011;11754;42.664;23.594;2022-10-30T13:55:28;5.70;;;1.40;;
23171;SDS011;11754;42.664;23.594;2022-10-30T14:03:33;5.97;;;1.23;;
23171;SDS011;11754;42.664;23.594;2022-10-30T14:11:23;3.20;;;1.48;;
23171;SDS011;11754;42.664;23.594;2022-10-30T14:13:52;8.60;;;1.73;;
23171;SDS011;11754;42.664;23.594;2022-10-30T14:19:04;9.50;;;1.73;;
23171;SDS011;11754;42.664;23.594;2022-10-30T14:21:38;5.20;;;2.03;;
23171;SDS011;11754;42.664;23.594;2022-10-30T14:26:45;9.15;;;3.30;;
23171;SDS011;11754;42.664;23.594;2022-10-30T14:32:00;10.35;;;4.07;;
23171;SDS011;11754;42.664;23.594;2022-10-30T14:34:42;9.85;;;4.07;;
23171;SDS011;11754;42.664;23.594;2022-10-30T14:37:14;19.80;;;5.65;;
23171;SDS011;11754;42.664;23.594;2022-10-30T14:40:29;9.63;;;3.85;;
23171;SDS011;11754;42.664;23.594;2022-10-30T14:43:00;14.15;;;4.47;;
23171;SDS011;11754;42.664;23.594;2022-10-30T14:48:20;11.25;;;3.20;;
23171;SDS011;11754;42.664;23.594;2022-10-30T14:50:58;10.80;;;3.20;;
23171;SDS011;11754;42.664;23.594;2022-10-30T14:53:30;10.13;;;3.50;;
23171;SDS011;11754;42.664;23.594;2022-10-30T15:04:18;6.10;;;2.13;;
23171;SDS011;11754;42.664;23.594;2022-10-30T15:15:16;10.55;;;2.25;;
23171;SDS011;11754;42.664;23.594;2022-10-30T15:17:46;12.15;;;2.58;;
23171;SDS011;11754;42.664;23.594;2022-10-30T15:20:23;9.43;;;2.38;;
23171;SDS011;11754;42.664;23.594;2022-10-30T15:22:52;11.65;;;2.50;;
23171;SDS011;11754;42.664;23.594;2022-10-30T15:25:21;13.13;;;3.25;;
23171;SDS011;11754;42.664;23.594;2022-10-30T15:27:50;13.60;;;3.22;;
23171;SDS011;11754;42.664;23.594;2022-10-30T15:30:19;12.45;;;3.20;;
23171;SDS011;11754;42.664;23.594;2022-10-30T15:32:47;10.43;;;3.15;;
23171;SDS011;11754;42.664;23.594;2022-10-30T15:35:17;13.50;;;2.60;;
23171;SDS011;11754;42.664;23.594;2022-10-30T15:38:00;14.82;;;3.22;;
23171;SDS011;11754;42.664;23.594;2022-10-30T15:40:34;12.57;;;3.00;;
23171;SDS011;11754;42.664;23.594;2022-10-30T15:43:05;13.40;;;3.42;;
23171;SDS011;11754;42.664;23.594;2022-10-30T15:45:35;18.00;;;3.30;;
23171;SDS011;11754;42.664;23.594;2022-10-30T15:51:31;10.35;;;2.83;;
23171;SDS011;11754;42.664;23.594;2022-10-30T15:56:18;339.08;;;145.88;;
23171;SDS011;11754;42.664;23.594;2022-10-30T15:58:50;227.80;;;93.82;;
23171;SDS011;11754;42.664;23.594;2022-10-30T16:01:44;272.48;;;114.10;;
23171;SDS011;11754;42.664;23.594;2022-10-30T16:04:17;181.23;;;74.05;;
23171;SDS011;11754;42.664;23.594;2022-10-30T16:06:48;128.07;;;51.35;;
23171;SDS011;11754;42.664;23.594;2022-10-30T16:09:14;123.70;;;47.42;;
23171;SDS011;11754;42.664;23.594;2022-10-30T16:11:39;46.40;;;16.20;;
23171;SDS011;11754;42.664;23.594;2022-10-30T16:14:12;29.73;;;11.70;;
23171;SDS011;11754;42.664;23.594;2022-10-30T16:16:39;32.22;;;11.15;;
23171;SDS011;11754;42.664;23.594;2022-10-30T16:19:07;42.50;;;19.02;;
23171;SDS011;11754;42.664;23.594;2022-10-30T16:21:32;56.53;;;19.48;;
23171;SDS011;11754;42.664;23.594;2022-10-30T16:24:00;37.95;;;15.05;;
23171;SDS011;11754;42.664;23.594;2022-10-30T16:26:32;36.80;;;14.32;;
23171;SDS011;11754;42.664;23.594;2022-10-30T16:29:06;44.60;;;13.80;;
23171;SDS011;11754;42.664;23.594;2022-10-30T16:31:41;19.83;;;8.60;;
23171;SDS011;11754;42.664;23.594;2022-10-30T16:34:08;67.72;;;30.95;;
23171;SDS011;11754;42.664;23.594;2022-10-30T16:36:38;48.58;;;26.13;;
23171;SDS011;11754;42.664;23.594;2022-10-30T16:39:05;18.77;;;7.70;;
23171;SDS011;11754;42.664;23.594;2022-10-30T16:41:31;19.58;;;7.57;;
23171;SDS011;11754;42.664;23.594;2022-10-30T16:46:47;19.42;;;5.80;;
23171;SDS011;11754;42.664;23.594;2022-10-30T16:49:16;21.35;;;5.40;;
23171;SDS011;11754;42.664;23.594;2022-10-30T16:51:43;13.30;;;4.90;;
23171;SDS011;11754;42.664;23.594;2022-10-30T16:54:20;17.02;;;5.38;;
23171;SDS011;11754;42.664;23.594;2022-10-30T16:56:50;17.38;;;5.90;;
23171;SDS011;11754;42.664;23.594;2022-10-30T16:59:25;15.52;;;6.90;;
23171;SDS011;11754;42.664;23.594;2022-10-30T17:01:54;16.83;;;6.03;;
23171;SDS011;11754;42.664;23.594;2022-10-30T17:04:22;13.77;;;5.63;;
23171;SDS011;11754;42.664;23.594;2022-10-30T17:06:50;15.30;;;6.18;;
23171;SDS011;11754;42.664;23.594;2022-10-30T17:09:29;17.83;;;5.85;;
23171;SDS011;11754;42.664;23.594;2022-10-30T17:12:03;20.80;;;6.80;;
23171;SDS011;11754;42.664;23.594;2022-10-30T17:14:45;11.68;;;5.47;;